createdAt,value
2018-05-03T00:00:23.388Z,27.10
2018-05-03T00:01:23.228Z,25.80
2018-05-03T00:02:23.369Z,25.30
2018-05-03T00:03:23.386Z,24.50
2018-05-03T00:04:23.400Z,24.50
2018-05-03T00:05:23.389Z,24.70
2018-05-03T00:06:23.312Z,23.80
2018-05-03T00:07:23.449Z,23.30
2018-05-03T00:08:23.344Z,23.20
2018-05-03T00:09:23.364Z,23.10
2018-05-03T00:10:23.458Z,24.30
2018-05-03T00:11:23.511Z,23.70
2018-05-03T00:12:23.411Z,22.80
2018-05-03T00:13:23.412Z,23.00
2018-05-03T00:14:23.432Z,23.40
2018-05-03T00:15:23.548Z,23.10
2018-05-03T00:16:23.462Z,23.40
2018-05-03T00:17:23.484Z,23.60
2018-05-03T00:18:23.558Z,23.40
2018-05-03T00:19:23.514Z,23.50
2018-05-03T00:20:23.701Z,23.80
2018-05-03T00:21:23.664Z,26.00
2018-05-03T00:22:23.557Z,24.20
2018-05-03T00:23:23.569Z,24.80
2018-05-03T00:24:23.593Z,25.30
2018-05-03T00:25:23.733Z,26.00
2018-05-03T00:26:23.679Z,24.10
2018-05-03T00:27:23.761Z,24.50
2018-05-03T00:28:23.649Z,25.40
2018-05-03T00:29:23.671Z,25.70
2018-05-03T00:30:23.684Z,24.20
2018-05-03T00:31:23.802Z,24.10
2018-05-03T00:32:23.836Z,24.70
2018-05-03T00:33:23.739Z,23.30
2018-05-03T00:34:23.753Z,24.10
2018-05-03T00:35:23.756Z,24.00
2018-05-03T00:36:24.007Z,24.90
2018-05-03T00:37:23.797Z,24.10
2018-05-03T00:38:23.816Z,24.40
2018-05-03T00:39:23.815Z,23.90
2018-05-03T00:40:23.961Z,25.10
2018-05-03T00:41:24.077Z,24.70
2018-05-03T00:42:23.865Z,24.80
2018-05-03T00:43:23.887Z,23.70
2018-05-03T00:44:24.024Z,24.90
2018-05-03T00:45:24.039Z,24.50
2018-05-03T00:46:24.035Z,24.30
2018-05-03T00:47:23.942Z,25.30
2018-05-03T00:48:24.085Z,25.10
2018-05-03T00:51:24.058Z,25.60
2018-05-03T00:52:24.019Z,25.90
2018-05-03T00:53:24.159Z,26.50
2018-05-03T00:54:24.177Z,25.10
2018-05-03T00:55:24.192Z,25.50
2018-05-03T00:56:24.195Z,24.80
2018-05-03T00:57:24.109Z,26.90
2018-05-03T00:58:24.116Z,26.40
2018-05-03T00:59:24.254Z,26.50
2018-05-03T01:00:24.157Z,24.40
2018-05-03T01:01:24.260Z,24.60
2018-05-03T01:02:24.304Z,26.20
2018-05-03T01:03:24.194Z,25.50
2018-05-03T01:04:24.204Z,25.60
2018-05-03T01:05:24.228Z,24.60
2018-05-03T01:06:24.337Z,23.30
2018-05-03T01:07:24.378Z,23.20
2018-05-03T01:08:24.270Z,23.20
2018-05-03T01:09:24.411Z,21.70
2018-05-03T01:10:24.300Z,21.80
2018-05-03T01:11:24.541Z,21.30
2018-05-03T01:12:24.329Z,21.70
2018-05-03T01:13:24.355Z,19.90
2018-05-03T01:14:24.358Z,20.30
2018-05-03T01:15:24.502Z,20.60
2018-05-03T01:16:24.505Z,20.20
2018-05-03T01:17:24.534Z,20.40
2018-05-03T01:18:24.552Z,20.60
2018-05-03T01:19:24.451Z,19.00
2018-05-03T01:20:24.582Z,19.10
2018-05-03T01:21:24.571Z,19.10
2018-05-03T01:22:24.612Z,18.30
2018-05-03T01:23:24.504Z,18.00
2018-05-03T01:24:24.516Z,18.30
2018-05-03T01:25:24.540Z,19.10
2018-05-03T01:26:24.649Z,19.40
2018-05-03T01:27:24.690Z,18.60
2018-05-03T01:28:24.591Z,18.90
2018-05-03T01:29:24.593Z,17.40
2018-05-03T01:30:24.735Z,18.00
2018-05-03T01:31:24.730Z,19.50
2018-05-03T01:32:24.649Z,18.20
2018-05-03T01:33:24.657Z,18.90
2018-05-03T01:34:24.685Z,17.40
2018-05-03T01:35:24.813Z,20.20
2018-05-03T01:36:24.810Z,20.70
2018-05-03T01:37:24.846Z,20.50
2018-05-03T01:38:24.863Z,20.10
2018-05-03T01:39:24.750Z,21.00
2018-05-03T01:40:24.773Z,21.50
2018-05-03T01:41:24.880Z,19.80
2018-05-03T01:42:24.804Z,21.10
2018-05-03T01:43:24.814Z,20.20
2018-05-03T01:44:24.954Z,21.20
2018-05-03T01:45:24.852Z,20.40
2018-05-03T01:46:24.957Z,20.00
2018-05-03T01:47:24.871Z,21.30
2018-05-03T01:48:24.890Z,23.20
2018-05-03T01:49:25.035Z,23.00
2018-05-03T01:50:24.925Z,23.30
2018-05-03T01:51:25.091Z,24.00
2018-05-03T01:52:25.078Z,26.30
2018-05-03T01:53:24.976Z,26.70
2018-05-03T01:54:24.982Z,24.80
2018-05-03T01:55:25.126Z,24.80
2018-05-03T01:56:25.112Z,24.60
2018-05-03T01:57:25.168Z,23.60
2018-05-03T01:58:25.170Z,25.40
2018-05-03T01:59:25.070Z,25.60
2018-05-03T02:00:25.077Z,27.60
2018-05-03T02:01:25.268Z,26.20
2018-05-03T02:02:25.105Z,26.90
2018-05-03T02:03:25.248Z,26.00
2018-05-03T02:04:25.143Z,26.10
2018-05-03T02:05:25.155Z,25.20
2018-05-03T02:06:25.275Z,25.50
2018-05-03T02:07:25.312Z,26.40
2018-05-03T02:08:25.195Z,27.10
2018-05-03T02:09:25.216Z,26.70
2018-05-03T02:10:25.353Z,25.30
2018-05-03T02:11:25.391Z,24.80
2018-05-03T02:12:25.387Z,24.90
2018-05-03T02:13:25.286Z,24.70
2018-05-03T02:14:25.415Z,25.30
2018-05-03T02:15:25.313Z,25.30
2018-05-03T02:16:25.596Z,23.60
2018-05-03T02:17:25.336Z,26.30
2018-05-03T02:18:25.475Z,23.70
2018-05-03T02:19:25.401Z,24.80
2018-05-03T02:20:25.379Z,23.80
2018-05-03T02:21:25.671Z,25.20
2018-05-03T02:22:25.409Z,23.20
2018-05-03T02:23:25.426Z,23.40
2018-05-03T02:24:25.496Z,23.80
2018-05-03T02:25:25.455Z,24.40
2018-05-03T02:26:25.632Z,22.60
2018-05-03T02:27:25.610Z,23.70
2018-05-03T02:28:25.514Z,24.00
2018-05-03T02:29:25.512Z,25.80
2018-05-03T02:30:25.533Z,24.10
2018-05-03T02:31:25.694Z,25.30
2018-05-03T02:32:25.689Z,24.80
2018-05-03T02:33:25.582Z,26.00
2018-05-03T02:34:25.718Z,25.10
2018-05-03T02:35:25.732Z,25.90
2018-05-03T02:36:25.747Z,26.40
2018-05-03T02:37:25.838Z,25.80
2018-05-03T02:38:25.776Z,26.40
2018-05-03T02:39:25.666Z,26.50
2018-05-03T02:40:25.687Z,26.30
2018-05-03T02:41:25.704Z,26.70
2018-05-03T02:42:25.872Z,28.50
2018-05-03T02:43:25.733Z,27.10
2018-05-03T02:44:25.866Z,28.90
2018-05-03T02:45:25.761Z,28.50
2018-05-03T02:46:25.768Z,30.60
2018-05-03T02:47:25.944Z,31.60
2018-05-03T02:48:25.926Z,33.40
2018-05-03T02:49:25.941Z,31.40
2018-05-03T02:50:25.839Z,32.60
2018-05-03T02:51:25.971Z,32.90
2018-05-03T02:52:26.134Z,31.60
2018-05-03T02:53:25.888Z,32.50
2018-05-03T02:54:25.887Z,34.20
2018-05-03T02:55:25.914Z,35.00
2018-05-03T02:56:25.928Z,34.10
2018-05-03T02:57:26.085Z,36.60
2018-05-03T02:58:26.074Z,37.80
2018-05-03T02:59:26.095Z,36.00
2018-05-03T03:00:26.106Z,36.60
2018-05-03T03:01:26.006Z,34.70
2018-05-03T03:02:26.356Z,33.20
2018-05-03T03:03:26.151Z,33.10
2018-05-03T03:04:26.045Z,33.40
2018-05-03T03:05:26.178Z,33.40
2018-05-03T03:06:26.195Z,33.50
2018-05-03T03:08:26.097Z,32.40
2018-05-03T03:09:26.239Z,32.70
2018-05-03T03:10:26.125Z,32.30
2018-05-03T03:11:26.267Z,32.50
2018-05-03T03:12:26.436Z,32.70
2018-05-03T03:13:26.169Z,33.40
2018-05-03T03:14:26.196Z,32.80
2018-05-03T03:15:26.198Z,33.70
2018-05-03T03:16:26.341Z,32.50
2018-05-03T03:17:26.390Z,33.00
2018-05-03T03:18:26.369Z,34.60
2018-05-03T03:19:26.385Z,33.40
2018-05-03T03:20:26.403Z,33.00
2018-05-03T03:21:26.415Z,34.10
2018-05-03T03:22:26.581Z,33.00
2018-05-03T03:23:26.323Z,35.00
2018-05-03T03:24:26.339Z,34.10
2018-05-03T03:25:26.345Z,36.10
2018-05-03T03:26:26.368Z,34.00
2018-05-03T03:27:26.525Z,35.30
2018-05-03T03:28:26.399Z,35.50
2018-05-03T03:29:26.533Z,35.00
2018-05-03T03:30:26.429Z,35.80
2018-05-03T03:31:26.561Z,36.70
2018-05-03T03:32:26.608Z,36.20
2018-05-03T03:33:26.464Z,37.10
2018-05-03T03:34:26.477Z,36.40
2018-05-03T03:35:26.619Z,37.10
2018-05-03T03:36:26.635Z,37.70
2018-05-03T03:37:26.673Z,36.70
2018-05-03T03:38:26.667Z,37.50
2018-05-03T03:39:26.552Z,36.30
2018-05-03T03:40:26.568Z,37.80
2018-05-03T03:41:26.709Z,36.70
2018-05-03T03:42:26.746Z,36.40
2018-05-03T03:43:26.612Z,35.70
2018-05-03T03:44:26.636Z,34.60
2018-05-03T03:45:26.644Z,33.00
2018-05-03T03:46:26.779Z,30.80
2018-05-03T03:47:26.945Z,26.80
2018-05-03T03:48:26.810Z,24.40
2018-05-03T03:49:26.703Z,22.00
2018-05-03T03:50:26.726Z,22.30
2018-05-03T03:51:26.735Z,19.20
2018-05-03T03:52:26.891Z,20.20
2018-05-03T03:53:26.765Z,18.50
2018-05-03T03:54:26.902Z,17.70
2018-05-03T03:55:26.913Z,17.70
2018-05-03T03:56:26.802Z,18.20
2018-05-03T03:57:27.096Z,18.80
2018-05-03T03:58:26.837Z,18.90
2018-05-03T03:59:26.974Z,18.20
2018-05-03T04:00:26.859Z,18.00
2018-05-03T04:01:26.878Z,19.80
2018-05-03T04:02:27.168Z,21.70
2018-05-03T04:03:27.029Z,22.10
2018-05-03T04:04:27.046Z,21.20
2018-05-03T04:05:27.063Z,22.00
2018-05-03T04:06:26.955Z,21.20
2018-05-03T04:09:27.115Z,28.40
2018-05-03T04:10:27.134Z,29.60
2018-05-03T04:11:27.148Z,29.70
2018-05-03T04:12:27.309Z,29.90
2018-05-03T04:13:27.049Z,31.30
2018-05-03T04:14:27.062Z,31.50
2018-05-03T04:15:27.208Z,28.10
2018-05-03T04:17:27.386Z,27.00
2018-05-03T04:18:27.246Z,28.10
2018-05-03T04:19:27.137Z,31.20
2018-05-03T04:20:27.282Z,29.90
2018-05-03T04:21:27.289Z,32.00
2018-05-03T04:22:27.503Z,31.80
2018-05-03T04:23:27.203Z,31.90
2018-05-03T04:24:27.224Z,32.40
2018-05-03T04:25:27.352Z,32.40
2018-05-03T04:26:27.367Z,29.70
2018-05-03T04:27:27.536Z,31.30
2018-05-03T04:28:27.274Z,31.70
2018-05-03T04:29:27.297Z,31.20
2018-05-03T04:30:27.298Z,30.10
2018-05-03T04:31:27.335Z,29.90
2018-05-03T04:32:27.485Z,30.00
2018-05-03T04:33:27.344Z,29.70
2018-05-03T04:34:27.381Z,30.30
2018-05-03T04:35:27.504Z,31.10
2018-05-03T04:36:27.386Z,30.90
2018-05-03T04:37:27.405Z,29.50
2018-05-03T04:38:27.578Z,30.20
2018-05-03T04:39:27.558Z,32.20
2018-05-03T04:40:27.445Z,31.10
2018-05-03T04:41:27.468Z,31.50
2018-05-03T04:42:27.475Z,28.50
2018-05-03T04:43:27.646Z,27.50
2018-05-03T04:44:27.510Z,27.10
2018-05-03T04:45:27.517Z,25.20
2018-05-03T04:46:27.659Z,23.60
2018-05-03T04:47:27.675Z,21.40
2018-05-03T04:48:27.840Z,19.90
2018-05-03T04:49:27.576Z,21.70
2018-05-03T04:50:27.595Z,19.60
2018-05-03T04:51:27.617Z,20.20
2018-05-03T04:52:27.623Z,19.10
2018-05-03T04:53:27.796Z,18.10
2018-05-03T04:54:27.652Z,16.90
2018-05-03T04:55:27.660Z,16.50
2018-05-03T04:56:27.687Z,16.70
2018-05-03T04:57:27.693Z,16.70
2018-05-03T04:58:27.984Z,16.40
2018-05-03T04:59:27.850Z,17.00
2018-05-03T05:00:27.862Z,17.80
2018-05-03T05:01:27.758Z,18.90
2018-05-03T05:02:27.893Z,18.60
2018-05-03T05:03:27.943Z,18.50
2018-05-03T05:04:27.807Z,17.80
2018-05-03T05:05:27.816Z,17.20
2018-05-03T05:06:27.948Z,17.70
2018-05-03T05:07:27.963Z,17.30
2018-05-03T05:08:28.132Z,18.20
2018-05-03T05:09:27.993Z,17.50
2018-05-03T05:10:28.088Z,18.10
2018-05-03T05:11:28.022Z,17.80
2018-05-03T05:12:28.036Z,18.20
2018-05-03T05:13:28.072Z,18.30
2018-05-03T05:14:27.950Z,18.60
2018-05-03T05:15:27.966Z,20.10
2018-05-03T05:16:27.977Z,18.40
2018-05-03T05:17:28.108Z,18.80
2018-05-03T05:18:28.325Z,18.60
2018-05-03T05:19:28.137Z,18.80
2018-05-03T05:20:28.035Z,18.50
2018-05-03T05:21:28.041Z,18.30
2018-05-03T05:22:28.185Z,19.70
2018-05-03T05:23:28.349Z,20.10
2018-05-03T05:24:28.211Z,19.60
2018-05-03T05:25:28.101Z,20.90
2018-05-03T05:26:28.120Z,20.80
2018-05-03T05:27:28.257Z,20.90
2018-05-03T05:28:28.418Z,20.60
2018-05-03T05:29:28.283Z,20.60
2018-05-03T05:30:28.297Z,20.40
2018-05-03T05:31:28.311Z,23.20
2018-05-03T05:32:28.197Z,21.10
2018-05-03T05:33:28.374Z,21.80
2018-05-03T05:34:28.353Z,22.30
2018-05-03T05:35:28.371Z,21.10
2018-05-03T05:36:28.258Z,22.40
2018-05-03T05:37:28.279Z,22.50
2018-05-03T05:38:28.520Z,22.10
2018-05-03T05:39:28.308Z,22.70
2018-05-03T05:40:28.322Z,22.30
2018-05-03T05:41:28.334Z,23.50
2018-05-03T05:42:28.471Z,23.70
2018-05-03T05:43:28.640Z,23.60
2018-05-03T05:44:28.372Z,23.00
2018-05-03T05:45:28.396Z,23.70
2018-05-03T05:47:28.414Z,23.90
2018-05-03T05:48:28.756Z,23.30
2018-05-03T05:49:28.574Z,23.00
2018-05-03T05:50:28.588Z,23.70
2018-05-03T05:51:28.479Z,23.90
2018-05-03T05:52:28.618Z,23.90
2018-05-03T05:53:28.661Z,23.90
2018-05-03T05:54:28.518Z,23.30
2018-05-03T05:55:28.659Z,23.30
2018-05-03T05:56:28.547Z,23.40
2018-05-03T05:57:28.688Z,24.70
2018-05-03T05:58:28.855Z,24.00
2018-05-03T05:59:28.596Z,24.60
2018-05-03T06:00:28.604Z,23.00
2018-05-03T06:01:28.747Z,23.90
2018-05-03T06:02:28.758Z,25.70
2018-05-03T06:03:28.806Z,24.80
2018-05-03T06:04:28.669Z,24.50
2018-05-03T06:05:28.676Z,24.90
2018-05-03T06:06:28.698Z,24.80
2018-05-03T06:07:28.717Z,25.60
2018-05-03T06:08:28.996Z,24.90
2018-05-03T06:09:28.860Z,24.50
2018-05-03T06:10:28.850Z,23.80
2018-05-03T06:11:28.895Z,24.10
2018-05-03T06:12:28.790Z,24.80
2018-05-03T06:13:28.949Z,23.80
2018-05-03T06:14:28.813Z,24.70
2018-05-03T06:15:28.945Z,25.50
2018-05-03T06:16:28.962Z,25.40
2018-05-03T06:17:28.978Z,26.80
2018-05-03T06:18:29.021Z,27.50
2018-05-03T06:19:28.879Z,25.80
2018-05-03T06:20:28.894Z,27.00
2018-05-03T06:21:29.035Z,24.00
2018-05-03T06:22:28.923Z,27.60
2018-05-03T06:23:29.213Z,25.60
2018-05-03T06:24:28.950Z,27.10
2018-05-03T06:25:29.092Z,24.80
2018-05-03T06:26:28.979Z,24.70
2018-05-03T06:27:29.005Z,25.50
2018-05-03T06:28:29.170Z,24.80
2018-05-03T06:29:29.034Z,24.10
2018-05-03T06:30:29.052Z,25.10
2018-05-03T06:31:29.062Z,24.40
2018-05-03T06:32:29.073Z,24.90
2018-05-03T06:33:29.362Z,28.00
2018-05-03T06:34:29.099Z,29.00
2018-05-03T06:35:29.240Z,29.30
2018-05-03T06:36:29.135Z,30.10
2018-05-03T06:37:29.270Z,28.10
2018-05-03T06:38:29.392Z,27.70
2018-05-03T06:39:29.171Z,27.90
2018-05-03T06:40:29.318Z,27.00
2018-05-03T06:41:29.214Z,28.40
2018-05-03T06:42:29.216Z,27.90
2018-05-03T06:43:29.512Z,27.70
2018-05-03T06:44:29.260Z,26.60
2018-05-03T06:45:29.392Z,27.80
2018-05-03T06:46:29.275Z,26.40
2018-05-03T06:47:29.419Z,26.30
2018-05-03T06:48:29.588Z,26.30
2018-05-03T06:49:29.326Z,26.60
2018-05-03T06:50:29.339Z,26.50
2018-05-03T06:51:29.546Z,27.00
2018-05-03T06:52:29.367Z,27.70
2018-05-03T06:53:29.542Z,26.80
2018-05-03T06:54:29.527Z,28.10
2018-05-03T06:55:29.540Z,26.70
2018-05-03T06:56:29.554Z,28.30
2018-05-03T06:57:29.456Z,28.50
2018-05-03T06:58:29.762Z,28.10
2018-05-03T06:59:29.611Z,28.20
2018-05-03T07:00:29.498Z,27.50
2018-05-03T07:01:29.506Z,27.20
2018-05-03T07:02:29.525Z,28.00
2018-05-03T07:03:29.683Z,26.40
2018-05-03T07:04:29.757Z,27.90
2018-05-03T07:05:29.578Z,27.70
2018-05-03T07:06:29.589Z,26.50
2018-05-03T07:07:29.612Z,27.00
2018-05-03T07:08:29.611Z,26.10
2018-05-03T07:09:29.901Z,27.00
2018-05-03T07:10:29.646Z,25.80
2018-05-03T07:11:29.782Z,26.00
2018-05-03T07:12:29.669Z,26.50
2018-05-03T07:13:29.691Z,26.50
2018-05-03T07:14:29.713Z,26.30
2018-05-03T07:16:29.729Z,26.80
2018-05-03T07:17:29.884Z,27.20
2018-05-03T07:18:29.777Z,26.50
2018-05-03T07:19:29.904Z,26.60
2018-05-03T07:20:29.991Z,27.10
2018-05-03T07:21:29.816Z,26.50
2018-05-03T07:22:29.946Z,25.80
2018-05-03T07:23:29.964Z,27.00
2018-05-03T07:24:29.859Z,26.70
2018-05-03T07:25:30.016Z,27.10
2018-05-03T07:26:29.882Z,25.80
2018-05-03T07:27:29.900Z,25.90
2018-05-03T07:28:30.042Z,26.30
2018-05-03T07:29:30.029Z,26.10
2018-05-03T07:30:30.110Z,26.40
2018-05-03T07:31:30.083Z,25.20
2018-05-03T07:32:30.101Z,26.30
2018-05-03T07:33:30.114Z,24.40
2018-05-03T07:34:30.128Z,25.10
2018-05-03T07:35:30.184Z,24.40
2018-05-03T07:36:30.160Z,24.40
2018-05-03T07:37:30.178Z,25.40
2018-05-03T07:38:30.190Z,25.10
2018-05-03T07:39:30.079Z,26.00
2018-05-03T07:40:30.245Z,26.10
2018-05-03T07:41:30.116Z,26.40
2018-05-03T07:42:30.125Z,25.00
2018-05-03T07:43:30.146Z,25.50
2018-05-03T07:44:30.168Z,27.40
2018-05-03T07:45:30.451Z,27.30
2018-05-03T07:46:30.311Z,28.00
2018-05-03T07:47:30.326Z,27.20
2018-05-03T07:48:30.424Z,27.60
2018-05-03T07:49:30.244Z,27.60
2018-05-03T07:50:30.455Z,25.90
2018-05-03T07:51:30.389Z,26.40
2018-05-03T07:52:30.406Z,25.10
2018-05-03T07:53:30.294Z,25.40
2018-05-03T07:54:30.381Z,24.70
2018-05-03T07:55:30.472Z,26.80
2018-05-03T07:56:30.337Z,24.60
2018-05-03T07:57:30.359Z,26.20
2018-05-03T07:58:30.366Z,25.00
2018-05-03T07:59:30.509Z,25.40
2018-05-03T08:00:30.677Z,25.70
2018-05-03T08:01:30.538Z,25.00
2018-05-03T08:02:30.552Z,24.60
2018-05-03T08:03:30.573Z,24.40
2018-05-03T08:04:30.471Z,25.00
2018-05-03T08:05:30.622Z,25.00
2018-05-03T08:06:30.502Z,25.20
2018-05-03T08:07:30.632Z,27.10
2018-05-03T08:08:30.523Z,25.20
2018-05-03T08:09:30.660Z,25.00
2018-05-03T08:10:30.828Z,26.40
2018-05-03T08:11:30.572Z,25.40
2018-05-03T08:12:30.706Z,25.00
2018-05-03T08:13:30.595Z,25.30
2018-05-03T08:14:30.610Z,24.90
2018-05-03T08:15:30.624Z,24.40
2018-05-03T08:16:30.797Z,25.00
2018-05-03T08:17:30.651Z,24.60
2018-05-03T08:18:30.796Z,24.50
2018-05-03T08:19:30.810Z,24.70
2018-05-03T08:20:30.827Z,25.00
2018-05-03T08:21:30.877Z,24.40
2018-05-03T08:22:30.733Z,24.10
2018-05-03T08:23:30.753Z,23.90
2018-05-03T08:24:30.758Z,24.30
2018-05-03T08:25:30.900Z,23.80
2018-05-03T08:26:31.118Z,24.60
2018-05-03T08:27:30.817Z,24.30
2018-05-03T08:28:30.850Z,23.40
2018-05-03T08:29:30.849Z,24.00
2018-05-03T08:30:30.974Z,24.30
2018-05-03T08:31:31.142Z,24.80
2018-05-03T08:32:31.008Z,24.90
2018-05-03T08:33:31.025Z,24.70
2018-05-03T08:34:31.038Z,24.30
2018-05-03T08:35:31.051Z,24.00
2018-05-03T08:36:31.224Z,24.10
2018-05-03T08:37:31.090Z,24.70
2018-05-03T08:38:30.966Z,24.80
2018-05-03T08:39:30.997Z,25.10
2018-05-03T08:40:31.006Z,23.80
2018-05-03T08:41:31.291Z,25.20
2018-05-03T08:42:31.155Z,25.00
2018-05-03T08:43:31.045Z,24.40
2018-05-03T08:44:31.191Z,25.20
2018-05-03T08:45:31.203Z,24.90
2018-05-03T08:46:31.241Z,25.10
2018-05-03T08:47:31.233Z,24.40
2018-05-03T08:48:31.134Z,25.50
2018-05-03T08:49:31.146Z,23.90
2018-05-03T08:50:31.277Z,24.70
2018-05-03T08:51:31.439Z,24.50
2018-05-03T08:52:31.177Z,24.20
2018-05-03T08:53:31.320Z,25.20
2018-05-03T08:54:31.335Z,25.30
2018-05-03T08:55:31.354Z,24.50
2018-05-03T08:56:31.515Z,24.10
2018-05-03T08:57:31.260Z,25.20
2018-05-03T08:58:31.477Z,24.30
2018-05-03T08:59:31.415Z,25.60
2018-05-03T09:00:31.301Z,24.30
2018-05-03T09:01:31.497Z,25.60
2018-05-03T09:02:31.335Z,24.50
2018-05-03T09:03:31.347Z,25.10
2018-05-03T09:04:31.374Z,23.60
2018-05-03T09:05:31.499Z,24.40
2018-05-03T09:06:31.516Z,24.60
2018-05-03T09:07:31.590Z,24.70
2018-05-03T09:08:31.440Z,24.40
2018-05-03T09:09:31.559Z,24.40
2018-05-03T09:10:31.576Z,25.70
2018-05-03T09:11:31.588Z,24.60
2018-05-03T09:12:31.634Z,24.10
2018-05-03T09:13:31.493Z,25.00
2018-05-03T09:14:31.514Z,24.40
2018-05-03T09:15:31.648Z,24.30
2018-05-03T09:16:31.545Z,23.70
2018-05-03T09:17:31.559Z,22.80
2018-05-03T09:18:31.719Z,23.50
2018-05-03T09:19:31.589Z,24.00
2018-05-03T09:20:31.722Z,24.90
2018-05-03T09:21:31.616Z,25.00
2018-05-03T09:22:31.678Z,24.80
2018-05-03T09:23:31.919Z,25.00
2018-05-03T09:24:31.657Z,25.40
2018-05-03T09:25:31.798Z,25.80
2018-05-03T09:26:31.686Z,25.40
2018-05-03T09:27:31.827Z,25.40
2018-05-03T09:28:31.878Z,24.60
2018-05-03T09:29:31.856Z,26.20
2018-05-03T09:30:31.741Z,25.80
2018-05-03T09:31:31.776Z,25.70
2018-05-03T09:32:31.783Z,26.40
2018-05-03T09:33:31.803Z,26.40
2018-05-03T09:34:31.957Z,27.10
2018-05-03T09:35:31.832Z,27.10
2018-05-03T09:36:31.961Z,27.30
2018-05-03T09:37:31.851Z,26.70
2018-05-03T09:38:31.870Z,27.00
2018-05-03T09:39:32.155Z,27.80
2018-05-03T09:40:31.903Z,27.90
2018-05-03T09:41:31.910Z,27.80
2018-05-03T09:42:31.924Z,27.50
2018-05-03T09:43:31.940Z,27.30
2018-05-03T09:44:32.232Z,26.40
2018-05-03T09:45:31.981Z,25.40
2018-05-03T09:46:32.112Z,27.40
2018-05-03T09:47:31.997Z,27.60
2018-05-03T09:48:32.012Z,27.80
2018-05-03T09:49:32.128Z,28.50
2018-05-03T09:50:32.042Z,28.40
2018-05-03T09:51:32.186Z,28.80
2018-05-03T09:52:32.258Z,28.80
2018-05-03T09:53:32.095Z,28.00
2018-05-03T09:54:32.382Z,28.50
2018-05-03T09:55:32.125Z,28.60
2018-05-03T09:56:32.259Z,29.10
2018-05-03T09:57:32.149Z,29.30
2018-05-03T09:58:32.169Z,30.30
2018-05-03T09:59:32.279Z,29.90
2018-05-03T10:00:32.322Z,31.00
2018-05-03T10:01:32.335Z,31.70
2018-05-03T10:02:32.236Z,31.20
2018-05-03T10:03:32.251Z,31.70
2018-05-03T10:04:32.480Z,30.60
2018-05-03T10:05:32.274Z,31.10
2018-05-03T10:06:32.282Z,30.80
2018-05-03T10:07:32.303Z,31.50
2018-05-03T10:08:32.315Z,31.00
2018-05-03T10:09:32.487Z,31.10
2018-05-03T10:10:32.346Z,30.70
2018-05-03T10:11:32.488Z,30.50
2018-05-03T10:12:32.506Z,30.00
2018-05-03T10:13:32.520Z,30.10
2018-05-03T10:14:32.459Z,30.90
2018-05-03T10:15:32.700Z,29.50
2018-05-03T10:16:32.439Z,29.10
2018-05-03T10:17:32.581Z,29.30
2018-05-03T10:18:32.596Z,28.80
2018-05-03T10:19:32.613Z,29.40
2018-05-03T10:20:32.652Z,29.10
2018-05-03T10:21:32.528Z,29.70
2018-05-03T10:22:32.737Z,28.80
2018-05-03T10:23:32.556Z,29.30
2018-05-03T10:24:32.576Z,29.10
2018-05-03T10:25:32.734Z,29.40
2018-05-03T10:26:32.728Z,28.50
2018-05-03T10:27:32.616Z,28.90
2018-05-03T10:28:32.641Z,30.00
2018-05-03T10:29:32.777Z,29.30
2018-05-03T10:30:32.943Z,31.40
2018-05-03T10:31:32.696Z,31.10
2018-05-03T10:32:32.707Z,29.30
2018-05-03T10:33:32.716Z,31.10
2018-05-03T10:34:32.741Z,30.20
2018-05-03T10:35:32.851Z,30.50
2018-05-03T10:36:32.766Z,31.80
2018-05-03T10:37:32.790Z,30.40
2018-05-03T10:38:32.799Z,32.30
2018-05-03T10:39:32.824Z,31.50
2018-05-03T10:40:33.061Z,31.70
2018-05-03T10:41:32.854Z,31.60
2018-05-03T10:42:32.878Z,32.60
2018-05-03T10:43:33.011Z,31.70
2018-05-03T10:44:32.911Z,34.00
2018-05-03T10:45:33.195Z,32.20
2018-05-03T10:46:33.058Z,33.40
2018-05-03T10:47:33.075Z,32.80
2018-05-03T10:48:33.091Z,33.20
2018-05-03T10:49:32.989Z,35.10
2018-05-03T10:50:33.099Z,33.50
2018-05-03T10:51:33.143Z,32.80
2018-05-03T10:52:33.159Z,33.00
2018-05-03T10:53:33.048Z,33.60
2018-05-03T10:54:33.066Z,32.90
2018-05-03T10:55:33.180Z,32.20
2018-05-03T10:56:33.101Z,33.30
2018-05-03T10:57:33.169Z,32.80
2018-05-03T10:58:33.254Z,33.90
2018-05-03T10:59:33.162Z,34.50
2018-05-03T11:00:33.263Z,33.50
2018-05-03T11:01:33.307Z,34.80
2018-05-03T11:02:33.199Z,34.70
2018-05-03T11:03:33.341Z,35.40
2018-05-03T11:04:33.244Z,35.90
2018-05-03T11:05:33.431Z,35.30
2018-05-03T11:06:33.377Z,33.20
2018-05-03T11:07:33.410Z,33.00
2018-05-03T11:08:33.427Z,30.20
2018-05-03T11:09:33.442Z,30.30
2018-05-03T11:10:33.331Z,29.80
2018-05-03T11:11:33.627Z,29.80
2018-05-03T11:12:33.378Z,28.80
2018-05-03T11:13:33.386Z,29.50
2018-05-03T11:14:33.414Z,29.60
2018-05-03T11:15:33.419Z,30.80
2018-05-03T11:16:33.718Z,30.90
2018-05-03T11:17:33.461Z,28.90
2018-05-03T11:19:33.500Z,31.70
2018-05-03T11:20:33.523Z,31.80
2018-05-03T11:21:33.698Z,29.30
2018-05-03T11:22:33.684Z,30.00
2018-05-03T11:23:33.702Z,30.60
2018-05-03T11:24:33.719Z,30.70
2018-05-03T11:25:33.742Z,32.20
2018-05-03T11:26:33.861Z,31.00
2018-05-03T11:27:33.779Z,30.70
2018-05-03T11:28:33.676Z,31.00
2018-05-03T11:29:33.818Z,31.30
2018-05-03T11:30:33.710Z,31.50
2018-05-03T11:31:33.867Z,32.10
2018-05-03T11:32:33.745Z,32.00
2018-05-03T11:33:33.896Z,31.60
2018-05-03T11:34:33.913Z,31.70
2018-05-03T11:35:33.809Z,32.00
2018-05-03T11:36:34.049Z,32.60
2018-05-03T11:37:33.849Z,34.10
2018-05-03T11:38:33.861Z,31.50
2018-05-03T11:39:33.888Z,31.50
2018-05-03T11:40:34.028Z,30.90
2018-05-03T11:41:34.021Z,31.30
2018-05-03T11:42:33.997Z,32.50
2018-05-03T11:43:33.960Z,31.60
2018-05-03T11:44:34.109Z,31.10
2018-05-03T11:45:34.124Z,30.40
2018-05-03T11:46:34.077Z,32.70
2018-05-03T11:47:34.045Z,30.60
2018-05-03T11:48:34.058Z,30.30
2018-05-03T11:49:34.203Z,31.90
2018-05-03T11:50:34.224Z,31.80
2018-05-03T11:51:34.392Z,34.50
2018-05-03T11:52:34.145Z,32.80
2018-05-03T11:53:34.286Z,32.80
2018-05-03T11:54:34.188Z,34.10
2018-05-03T11:55:34.197Z,31.80
2018-05-03T11:56:34.317Z,32.90
2018-05-03T11:57:34.364Z,32.40
2018-05-03T11:58:34.259Z,31.60
2018-05-03T11:59:34.280Z,30.10
2018-05-03T12:00:34.295Z,31.40
2018-05-03T12:01:34.473Z,30.40
2018-05-03T12:02:34.350Z,31.40
2018-05-03T12:03:34.366Z,30.90
2018-05-03T12:04:34.506Z,30.60
2018-05-03T12:05:34.401Z,32.00
2018-05-03T12:06:34.427Z,30.90
2018-05-03T12:07:34.593Z,32.90
2018-05-03T12:08:34.589Z,32.40
2018-05-03T12:09:34.493Z,32.20
2018-05-03T12:10:34.625Z,31.40
2018-05-03T12:11:34.648Z,29.40
2018-05-03T12:12:34.691Z,28.90
2018-05-03T12:13:34.564Z,26.70
2018-05-03T12:14:34.592Z,26.80
2018-05-03T12:15:34.598Z,26.30
2018-05-03T12:16:34.620Z,22.90
2018-05-03T12:17:34.967Z,25.00
2018-05-03T12:18:34.661Z,25.40
2018-05-03T12:19:34.687Z,23.70
2018-05-03T12:20:34.701Z,24.30
2018-05-03T12:21:34.727Z,23.70
2018-05-03T12:22:34.837Z,23.60
2018-05-03T12:23:34.767Z,24.00
2018-05-03T12:24:34.905Z,23.70
2018-05-03T12:25:34.928Z,24.10
2018-05-03T12:26:34.817Z,22.90
2018-05-03T12:27:34.898Z,22.90
2018-05-03T12:28:34.858Z,24.00
2018-05-03T12:29:34.889Z,24.10
2018-05-03T12:30:35.028Z,23.40
2018-05-03T12:31:34.934Z,23.90
2018-05-03T12:32:35.168Z,22.00
2018-05-03T12:33:34.960Z,23.70
2018-05-03T12:34:34.984Z,23.30
2018-05-03T12:35:35.000Z,24.70
2018-05-03T12:36:35.144Z,23.40
2018-05-03T12:37:35.246Z,24.50
2018-05-03T12:38:35.187Z,23.80
2018-05-03T12:39:35.086Z,22.90
2018-05-03T12:40:35.229Z,24.20
2018-05-03T12:41:35.126Z,24.30
2018-05-03T12:42:35.415Z,22.60
2018-05-03T12:43:35.157Z,23.80
2018-05-03T12:44:35.176Z,24.40
2018-05-03T12:45:35.326Z,23.30
2018-05-03T12:46:35.228Z,24.20
2018-05-03T12:47:35.562Z,22.80
2018-05-03T12:48:35.381Z,25.00
2018-05-03T12:49:35.405Z,23.80
2018-05-03T12:50:35.302Z,22.90
2018-05-03T12:51:35.316Z,24.40
2018-05-03T12:52:35.498Z,22.70
2018-05-03T12:53:35.369Z,22.80
2018-05-03T12:54:35.499Z,24.00
2018-05-03T12:55:35.522Z,24.70
2018-05-03T12:56:35.542Z,22.90
2018-05-03T12:57:35.712Z,24.30
2018-05-03T12:58:35.579Z,24.10
2018-05-03T12:59:35.600Z,24.30
2018-05-03T13:00:35.621Z,24.30
2018-05-03T13:01:35.640Z,22.80